sensor_id;sensor_type;location;lat;lon;timestamp;P1;durP1;ratioP1;P2;durP2;ratioP2
2119;SDS011;1066;52.540;13.420;2022-10-19T00:01:00;5.60;;;3.20;;
2119;SDS011;1066;52.540;13.420;2022-10-19T00:03:34;6.73;;;3.60;;
2119;SDS011;1066;52.540;13.420;2022-10-19T00:06:08;10.13;;;2.70;;
2119;SDS011;1066;52.540;13.420;2022-10-19T00:08:39;4.80;;;3.30;;
2119;SDS011;1066;52.540;13.420;2022-10-19T00:11:05;4.33;;;2.70;;
2119;SDS011;1066;52.540;13.420;2022-10-19T00:13:31;6.43;;;2.93;;
2119;SDS011;1066;52.540;13.420;2022-10-19T00:15:56;7.30;;;3.53;;
2119;SDS011;1066;52.540;13.420;2022-10-19T00:18:21;5.10;;;2.80;;
2119;SDS011;1066;52.540;13.420;2022-10-19T00:20:47;5.50;;;3.00;;
2119;SDS011;1066;52.540;13.420;2022-10-19T00:23:12;5.00;;;2.90;;
2119;SDS011;1066;52.540;13.420;2022-10-19T00:25:38;7.67;;;3.80;;
2119;SDS011;1066;52.540;13.420;2022-10-19T00:28:03;5.43;;;3.70;;
2119;SDS011;1066;52.540;13.420;2022-10-19T00:30:29;5.10;;;3.20;;
2119;SDS011;1066;52.540;13.420;2022-10-19T00:32:54;7.10;;;2.80;;
2119;SDS011;1066;52.540;13.420;2022-10-19T00:35:19;4.80;;;3.10;;
2119;SDS011;1066;52.540;13.420;2022-10-19T00:37:45;6.20;;;3.27;;
2119;SDS011;1066;52.540;13.420;2022-10-19T00:40:10;5.33;;;2.80;;
2119;SDS011;1066;52.540;13.420;2022-10-19T00:42:36;6.03;;;2.70;;
2119;SDS011;1066;52.540;13.420;2022-10-19T00:45:04;5.20;;;2.90;;
2119;SDS011;1066;52.540;13.420;2022-10-19T00:47:31;5.53;;;2.80;;
2119;SDS011;1066;52.540;13.420;2022-10-19T00:49:56;5.83;;;3.00;;
2119;SDS011;1066;52.540;13.420;2022-10-19T00:52:23;6.23;;;2.70;;
2119;SDS011;1066;52.540;13.420;2022-10-19T00:54:49;10.40;;;2.80;;
2119;SDS011;1066;52.540;13.420;2022-10-19T00:57:16;5.77;;;2.97;;
2119;SDS011;1066;52.540;13.420;2022-10-19T00:59:42;3.80;;;2.50;;
2119;SDS011;1066;52.540;13.420;2022-10-19T01:02:08;6.60;;;2.80;;
2119;SDS011;1066;52.540;13.420;2022-10-19T01:04:34;6.77;;;3.03;;
2119;SDS011;1066;52.540;13.420;2022-10-19T01:07:02;6.30;;;2.80;;
2119;SDS011;1066;52.540;13.420;2022-10-19T01:09:28;9.60;;;2.90;;
2119;SDS011;1066;52.540;13.420;2022-10-19T01:12:05;5.90;;;2.43;;
2119;SDS011;1066;52.540;13.420;2022-10-19T01:20:04;3.70;;;2.07;;
2119;SDS011;1066;52.540;13.420;2022-10-19T01:22:54;5.00;;;2.20;;
2119;SDS011;1066;52.540;13.420;2022-10-19T01:25:46;3.30;;;1.70;;
2119;SDS011;1066;52.540;13.420;2022-10-19T01:31:20;5.83;;;2.07;;
2119;SDS011;1066;52.540;13.420;2022-10-19T01:36:38;5.60;;;2.57;;
2119;SDS011;1066;52.540;13.420;2022-10-19T01:39:13;4.33;;;2.17;;
2119;SDS011;1066;52.540;13.420;2022-10-19T01:44:34;5.67;;;2.10;;
2119;SDS011;1066;52.540;13.420;2022-10-19T01:47:05;5.13;;;2.00;;
2119;SDS011;1066;52.540;13.420;2022-10-19T01:52:13;3.20;;;1.93;;
2119;SDS011;1066;52.540;13.420;2022-10-19T01:54:45;4.23;;;2.07;;
2119;SDS011;1066;52.540;13.420;2022-10-19T01:57:15;3.50;;;1.57;;
2119;SDS011;1066;52.540;13.420;2022-10-19T01:59:47;3.63;;;1.93;;
2119;SDS011;1066;52.540;13.420;2022-10-19T02:02:13;4.40;;;2.40;;
2119;SDS011;1066;52.540;13.420;2022-10-19T02:04:39;9.10;;;2.93;;
2119;SDS011;1066;52.540;13.420;2022-10-19T02:07:05;8.60;;;2.60;;
2119;SDS011;1066;52.540;13.420;2022-10-19T02:09:31;8.47;;;3.00;;
2119;SDS011;1066;52.540;13.420;2022-10-19T02:11:58;10.47;;;3.00;;
2119;SDS011;1066;52.540;13.420;2022-10-19T02:14:29;3.00;;;2.13;;
2119;SDS011;1066;52.540;13.420;2022-10-19T02:16:58;6.80;;;1.97;;
2119;SDS011;1066;52.540;13.420;2022-10-19T02:19:30;6.60;;;2.30;;
2119;SDS011;1066;52.540;13.420;2022-10-19T02:21:56;4.10;;;2.37;;
2119;SDS011;1066;52.540;13.420;2022-10-19T02:24:21;5.97;;;2.43;;
2119;SDS011;1066;52.540;13.420;2022-10-19T02:26:47;6.07;;;2.90;;
2119;SDS011;1066;52.540;13.420;2022-10-19T02:29:13;5.13;;;2.00;;
2119;SDS011;1066;52.540;13.420;2022-10-19T02:31:39;4.73;;;2.33;;
2119;SDS011;1066;52.540;13.420;2022-10-19T02:34:04;5.03;;;1.87;;
2119;SDS011;1066;52.540;13.420;2022-10-19T02:36:30;6.53;;;2.30;;
2119;SDS011;1066;52.540;13.420;2022-10-19T02:38:55;4.53;;;2.47;;
2119;SDS011;1066;52.540;13.420;2022-10-19T02:41:32;5.70;;;2.93;;
2119;SDS011;1066;52.540;13.420;2022-10-19T02:44:23;3.60;;;2.43;;
2119;SDS011;1066;52.540;13.420;2022-10-19T02:46:53;3.33;;;2.50;;
2119;SDS011;1066;52.540;13.420;2022-10-19T02:49:22;5.73;;;3.33;;
2119;SDS011;1066;52.540;13.420;2022-10-19T02:51:59;6.00;;;2.40;;
2119;SDS011;1066;52.540;13.420;2022-10-19T02:54:27;5.73;;;2.60;;
2119;SDS011;1066;52.540;13.420;2022-10-19T02:56:53;5.50;;;2.53;;
2119;SDS011;1066;52.540;13.420;2022-10-19T02:59:18;6.03;;;2.17;;
2119;SDS011;1066;52.540;13.420;2022-10-19T03:01:44;4.57;;;2.50;;
2119;SDS011;1066;52.540;13.420;2022-10-19T03:04:09;4.03;;;2.43;;
2119;SDS011;1066;52.540;13.420;2022-10-19T03:06:35;4.03;;;2.50;;
2119;SDS011;1066;52.540;13.420;2022-10-19T03:09:00;2.30;;;2.10;;
2119;SDS011;1066;52.540;13.420;2022-10-19T03:11:25;2.80;;;1.97;;
2119;SDS011;1066;52.540;13.420;2022-10-19T03:13:51;6.37;;;2.40;;
2119;SDS011;1066;52.540;13.420;2022-10-19T03:16:16;3.57;;;1.80;;
2119;SDS011;1066;52.540;13.420;2022-10-19T03:18:42;6.17;;;2.17;;
2119;SDS011;1066;52.540;13.420;2022-10-19T03:21:08;2.60;;;1.73;;
2119;SDS011;1066;52.540;13.420;2022-10-19T03:23:35;7.40;;;2.47;;
2119;SDS011;1066;52.540;13.420;2022-10-19T03:26:02;4.77;;;2.00;;
2119;SDS011;1066;52.540;13.420;2022-10-19T03:28:28;8.00;;;2.33;;
2119;SDS011;1066;52.540;13.420;2022-10-19T03:30:54;2.77;;;1.93;;
2119;SDS011;1066;52.540;13.420;2022-10-19T03:33:20;3.90;;;2.33;;
2119;SDS011;1066;52.540;13.420;2022-10-19T03:35:46;5.23;;;2.00;;
2119;SDS011;1066;52.540;13.420;2022-10-19T03:38:12;4.43;;;1.77;;
2119;SDS011;1066;52.540;13.420;2022-10-19T03:40:37;6.70;;;1.83;;
2119;SDS011;1066;52.540;13.420;2022-10-19T03:43:03;3.20;;;2.37;;
2119;SDS011;1066;52.540;13.420;2022-10-19T03:45:28;1.67;;;1.40;;
2119;SDS011;1066;52.540;13.420;2022-10-19T03:47:54;2.03;;;1.40;;
2119;SDS011;1066;52.540;13.420;2022-10-19T03:50:19;3.07;;;1.20;;
2119;SDS011;1066;52.540;13.420;2022-10-19T03:52:45;4.23;;;1.50;;
2119;SDS011;1066;52.540;13.420;2022-10-19T03:55:13;2.70;;;1.90;;
2119;SDS011;1066;52.540;13.420;2022-10-19T03:57:39;2.40;;;1.40;;
2119;SDS011;1066;52.540;13.420;2022-10-19T04:00:05;2.27;;;1.10;;
2119;SDS011;1066;52.540;13.420;2022-10-19T04:02:31;2.90;;;1.30;;
2119;SDS011;1066;52.540;13.420;2022-10-19T04:04:57;3.47;;;1.70;;
2119;SDS011;1066;52.540;13.420;2022-10-19T04:07:22;2.33;;;1.30;;
2119;SDS011;1066;52.540;13.420;2022-10-19T04:09:47;3.60;;;1.90;;
2119;SDS011;1066;52.540;13.420;2022-10-19T04:12:13;4.73;;;1.63;;
2119;SDS011;1066;52.540;13.420;2022-10-19T04:14:39;3.30;;;1.90;;
2119;SDS011;1066;52.540;13.420;2022-10-19T04:17:04;3.13;;;1.47;;
2119;SDS011;1066;52.540;13.420;2022-10-19T04:19:30;3.30;;;1.63;;
2119;SDS011;1066;52.540;13.420;2022-10-19T04:21:55;4.23;;;1.70;;
2119;SDS011;1066;52.540;13.420;2022-10-19T04:24:21;3.03;;;1.40;;
2119;SDS011;1066;52.540;13.420;2022-10-19T04:26:50;7.03;;;2.60;;
2119;SDS011;1066;52.540;13.420;2022-10-19T04:29:18;4.27;;;1.93;;
2119;SDS011;1066;52.540;13.420;2022-10-19T04:31:45;2.87;;;1.80;;
2119;SDS011;1066;52.540;13.420;2022-10-19T04:34:13;3.63;;;1.70;;
2119;SDS011;1066;52.540;13.420;2022-10-19T04:36:38;3.87;;;1.80;;
2119;SDS011;1066;52.540;13.420;2022-10-19T04:39:04;3.03;;;1.73;;
2119;SDS011;1066;52.540;13.420;2022-10-19T04:41:30;2.30;;;1.60;;
2119;SDS011;1066;52.540;13.420;2022-10-19T04:44:00;2.50;;;1.67;;
2119;SDS011;1066;52.540;13.420;2022-10-19T04:46:27;5.77;;;1.70;;
2119;SDS011;1066;52.540;13.420;2022-10-19T04:48:53;4.10;;;1.87;;
2119;SDS011;1066;52.540;13.420;2022-10-19T04:51:20;2.40;;;1.57;;
2119;SDS011;1066;52.540;13.420;2022-10-19T04:53:46;3.60;;;1.50;;
2119;SDS011;1066;52.540;13.420;2022-10-19T04:56:13;5.93;;;2.00;;
2119;SDS011;1066;52.540;13.420;2022-10-19T04:58:40;3.13;;;1.60;;
2119;SDS011;1066;52.540;13.420;2022-10-19T05:01:06;8.00;;;1.70;;
2119;SDS011;1066;52.540;13.420;2022-10-19T05:03:35;4.10;;;1.67;;
2119;SDS011;1066;52.540;13.420;2022-10-19T05:06:01;4.10;;;1.70;;
2119;SDS011;1066;52.540;13.420;2022-10-19T05:08:26;3.97;;;1.70;;
2119;SDS011;1066;52.540;13.420;2022-10-19T05:10:52;2.63;;;1.40;;
2119;SDS011;1066;52.540;13.420;2022-10-19T05:13:17;2.80;;;1.47;;
2119;SDS011;1066;52.540;13.420;2022-10-19T05:15:42;2.87;;;1.27;;
2119;SDS011;1066;52.540;13.420;2022-10-19T05:18:08;4.00;;;1.50;;
2119;SDS011;1066;52.540;13.420;2022-10-19T05:20:33;2.70;;;1.40;;
2119;SDS011;1066;52.540;13.420;2022-10-19T05:22:58;7.30;;;2.10;;
2119;SDS011;1066;52.540;13.420;2022-10-19T05:25:24;3.70;;;2.00;;
2119;SDS011;1066;52.540;13.420;2022-10-19T05:27:50;3.73;;;1.60;;
2119;SDS011;1066;52.540;13.420;2022-10-19T05:30:16;7.33;;;2.00;;
2119;SDS011;1066;52.540;13.420;2022-10-19T05:32:42;4.50;;;1.50;;
2119;SDS011;1066;52.540;13.420;2022-10-19T05:35:07;3.60;;;1.57;;
2119;SDS011;1066;52.540;13.420;2022-10-19T05:37:33;4.10;;;1.80;;
2119;SDS011;1066;52.540;13.420;2022-10-19T05:39:58;3.87;;;1.50;;
2119;SDS011;1066;52.540;13.420;2022-10-19T05:42:24;5.40;;;2.07;;
2119;SDS011;1066;52.540;13.420;2022-10-19T05:44:49;2.37;;;1.23;;
2119;SDS011;1066;52.540;13.420;2022-10-19T05:47:14;4.17;;;1.63;;
2119;SDS011;1066;52.540;13.420;2022-10-19T05:49:40;4.73;;;1.77;;
2119;SDS011;1066;52.540;13.420;2022-10-19T05:52:05;3.00;;;1.90;;
2119;SDS011;1066;52.540;13.420;2022-10-19T05:54:30;6.93;;;1.97;;
2119;SDS011;1066;52.540;13.420;2022-10-19T05:56:56;4.67;;;2.13;;
2119;SDS011;1066;52.540;13.420;2022-10-19T05:59:22;2.73;;;1.80;;
2119;SDS011;1066;52.540;13.420;2022-10-19T06:01:47;5.87;;;2.07;;
2119;SDS011;1066;52.540;13.420;2022-10-19T06:04:13;3.50;;;1.97;;
2119;SDS011;1066;52.540;13.420;2022-10-19T06:06:41;5.17;;;1.40;;
2119;SDS011;1066;52.540;13.420;2022-10-19T06:09:07;3.77;;;1.70;;
2119;SDS011;1066;52.540;13.420;2022-10-19T06:11:35;3.60;;;1.60;;
2119;SDS011;1066;52.540;13.420;2022-10-19T06:14:04;10.10;;;2.20;;
2119;SDS011;1066;52.540;13.420;2022-10-19T06:16:32;4.77;;;2.63;;
2119;SDS011;1066;52.540;13.420;2022-10-19T06:18:58;5.63;;;1.67;;
2119;SDS011;1066;52.540;13.420;2022-10-19T06:21:25;3.80;;;2.00;;
2119;SDS011;1066;52.540;13.420;2022-10-19T06:23:53;3.73;;;1.80;;
2119;SDS011;1066;52.540;13.420;2022-10-19T06:26:20;5.90;;;1.77;;
2119;SDS011;1066;52.540;13.420;2022-10-19T06:28:45;2.70;;;1.60;;
2119;SDS011;1066;52.540;13.420;2022-10-19T06:31:11;5.90;;;1.83;;
2119;SDS011;1066;52.540;13.420;2022-10-19T06:33:42;3.30;;;1.57;;
2119;SDS011;1066;52.540;13.420;2022-10-19T06:36:09;2.70;;;1.73;;
2119;SDS011;1066;52.540;13.420;2022-10-19T06:38:39;3.70;;;1.70;;
2119;SDS011;1066;52.540;13.420;2022-10-19T06:41:05;5.33;;;1.60;;
2119;SDS011;1066;52.540;13.420;2022-10-19T06:43:31;4.20;;;1.93;;
2119;SDS011;1066;52.540;13.420;2022-10-19T06:45:57;7.17;;;2.73;;
2119;SDS011;1066;52.540;13.420;2022-10-19T06:48:23;4.00;;;1.80;;
2119;SDS011;1066;52.540;13.420;2022-10-19T06:50:54;8.87;;;2.43;;
2119;SDS011;1066;52.540;13.420;2022-10-19T06:53:20;4.20;;;1.83;;
2119;SDS011;1066;52.540;13.420;2022-10-19T06:55:46;4.57;;;2.00;;
2119;SDS011;1066;52.540;13.420;2022-10-19T06:58:11;6.80;;;2.23;;
2119;SDS011;1066;52.540;13.420;2022-10-19T07:00:36;5.37;;;2.20;;
2119;SDS011;1066;52.540;13.420;2022-10-19T07:03:02;4.83;;;2.10;;
2119;SDS011;1066;52.540;13.420;2022-10-19T07:05:27;3.90;;;1.80;;
2119;SDS011;1066;52.540;13.420;2022-10-19T07:07:53;3.67;;;2.17;;
2119;SDS011;1066;52.540;13.420;2022-10-19T07:10:18;3.93;;;1.83;;
2119;SDS011;1066;52.540;13.420;2022-10-19T07:12:45;5.10;;;2.00;;
2119;SDS011;1066;52.540;13.420;2022-10-19T07:15:10;2.87;;;1.53;;
2119;SDS011;1066;52.540;13.420;2022-10-19T07:17:35;3.90;;;2.00;;
2119;SDS011;1066;52.540;13.420;2022-10-19T07:20:01;5.70;;;1.90;;
2119;SDS011;1066;52.540;13.420;2022-10-19T07:22:26;4.30;;;1.73;;
2119;SDS011;1066;52.540;13.420;2022-10-19T07:24:51;6.97;;;2.00;;
2119;SDS011;1066;52.540;13.420;2022-10-19T07:27:17;4.17;;;1.93;;
2119;SDS011;1066;52.540;13.420;2022-10-19T07:29:42;3.40;;;1.87;;
2119;SDS011;1066;52.540;13.420;2022-10-19T07:32:08;1.93;;;1.70;;
2119;SDS011;1066;52.540;13.420;2022-10-19T07:34:33;3.13;;;1.63;;
2119;SDS011;1066;52.540;13.420;2022-10-19T07:36:58;4.03;;;1.80;;
2119;SDS011;1066;52.540;13.420;2022-10-19T07:39:24;3.93;;;2.07;;
2119;SDS011;1066;52.540;13.420;2022-10-19T07:41:51;6.63;;;2.23;;
2119;SDS011;1066;52.540;13.420;2022-10-19T07:44:16;4.40;;;1.50;;
2119;SDS011;1066;52.540;13.420;2022-10-19T07:46:42;3.13;;;2.03;;
2119;SDS011;1066;52.540;13.420;2022-10-19T07:49:09;3.10;;;1.83;;
2119;SDS011;1066;52.540;13.420;2022-10-19T07:51:37;5.37;;;1.70;;
2119;SDS011;1066;52.540;13.420;2022-10-19T07:54:03;5.67;;;1.90;;
2119;SDS011;1066;52.540;13.420;2022-10-19T07:56:28;3.93;;;1.93;;
2119;SDS011;1066;52.540;13.420;2022-10-19T07:58:54;3.60;;;2.00;;
2119;SDS011;1066;52.540;13.420;2022-10-19T08:01:24;4.20;;;2.13;;
2119;SDS011;1066;52.540;13.420;2022-10-19T08:03:52;3.90;;;1.73;;
2119;SDS011;1066;52.540;13.420;2022-10-19T08:06:18;3.70;;;2.20;;
2119;SDS011;1066;52.540;13.420;2022-10-19T08:08:48;4.43;;;2.30;;
2119;SDS011;1066;52.540;13.420;2022-10-19T08:11:21;7.70;;;4.37;;
2119;SDS011;1066;52.540;13.420;2022-10-19T08:13:49;4.23;;;2.43;;
2119;SDS011;1066;52.540;13.420;2022-10-19T08:19:12;4.07;;;2.47;;
2119;SDS011;1066;52.540;13.420;2022-10-19T08:21:39;5.90;;;1.80;;
2119;SDS011;1066;52.540;13.420;2022-10-19T08:24:06;4.63;;;1.60;;
2119;SDS011;1066;52.540;13.420;2022-10-19T08:26:32;4.23;;;1.40;;
2119;SDS011;1066;52.540;13.420;2022-10-19T08:28:59;5.13;;;2.00;;
2119;SDS011;1066;52.540;13.420;2022-10-19T08:31:26;3.33;;;2.17;;
2119;SDS011;1066;52.540;13.420;2022-10-19T08:33:51;3.17;;;2.40;;
2119;SDS011;1066;52.540;13.420;2022-10-19T08:36:17;6.30;;;2.80;;
2119;SDS011;1066;52.540;13.420;2022-10-19T08:38:44;5.47;;;1.90;;
2119;SDS011;1066;52.540;13.420;2022-10-19T08:49:23;5.80;;;2.10;;
2119;SDS011;1066;52.540;13.420;2022-10-19T08:51:57;4.73;;;1.40;;
2119;SDS011;1066;52.540;13.420;2022-10-19T08:54:28;4.20;;;1.60;;
2119;SDS011;1066;52.540;13.420;2022-10-19T09:04:57;5.67;;;1.70;;
2119;SDS011;1066;52.540;13.420;2022-10-19T09:07:32;2.53;;;1.83;;
2119;SDS011;1066;52.540;13.420;2022-10-19T09:10:09;2.97;;;1.70;;
2119;SDS011;1066;52.540;13.420;2022-10-19T09:15:16;2.23;;;1.30;;
2119;SDS011;1066;52.540;13.420;2022-10-19T09:17:43;4.97;;;2.70;;
2119;SDS011;1066;52.540;13.420;2022-10-19T09:20:15;3.77;;;1.70;;
2119;SDS011;1066;52.540;13.420;2022-10-19T09:22:40;3.20;;;1.60;;
2119;SDS011;1066;52.540;13.420;2022-10-19T09:25:19;7.30;;;1.90;;
2119;SDS011;1066;52.540;13.420;2022-10-19T09:27:47;4.50;;;1.87;;
2119;SDS011;1066;52.540;13.420;2022-10-19T09:30:21;7.27;;;1.60;;
2119;SDS011;1066;52.540;13.420;2022-10-19T09:32:48;5.40;;;2.90;;
2119;SDS011;1066;52.540;13.420;2022-10-19T09:37:53;3.80;;;2.20;;
2119;SDS011;1066;52.540;13.420;2022-10-19T09:40:20;5.37;;;2.30;;
2119;SDS011;1066;52.540;13.420;2022-10-19T09:42:53;2.70;;;2.10;;
2119;SDS011;1066;52.540;13.420;2022-10-19T09:48:03;2.03;;;1.30;;
2119;SDS011;1066;52.540;13.420;2022-10-19T09:50:30;2.13;;;1.30;;
2119;SDS011;1066;52.540;13.420;2022-10-19T09:53:02;2.00;;;1.33;;
2119;SDS011;1066;52.540;13.420;2022-10-19T09:55:41;3.73;;;1.80;;
2119;SDS011;1066;52.540;13.420;2022-10-19T10:00:38;3.00;;;1.57;;
2119;SDS011;1066;52.540;13.420;2022-10-19T10:03:06;3.40;;;1.30;;
2119;SDS011;1066;52.540;13.420;2022-10-19T10:05:38;4.20;;;1.57;;
2119;SDS011;1066;52.540;13.420;2022-10-19T10:08:11;2.53;;;1.20;;
2119;SDS011;1066;52.540;13.420;2022-10-19T10:10:45;2.53;;;1.30;;
2119;SDS011;1066;52.540;13.420;2022-10-19T10:13:16;2.77;;;1.30;;
2119;SDS011;1066;52.540;13.420;2022-10-19T10:15:46;1.70;;;1.23;;
2119;SDS011;1066;52.540;13.420;2022-10-19T10:18:13;1.60;;;1.23;;
2119;SDS011;1066;52.540;13.420;2022-10-19T10:20:54;4.10;;;1.30;;
2119;SDS011;1066;52.540;13.420;2022-10-19T10:23:22;1.57;;;1.13;;
2119;SDS011;1066;52.540;13.420;2022-10-19T10:25:49;2.03;;;1.70;;
2119;SDS011;1066;52.540;13.420;2022-10-19T10:28:19;1.60;;;1.00;;
2119;SDS011;1066;52.540;13.420;2022-10-19T10:30:46;1.93;;;1.00;;
2119;SDS011;1066;52.540;13.420;2022-10-19T10:33:16;2.60;;;1.13;;
2119;SDS011;1066;52.540;13.420;2022-10-19T10:35:49;1.90;;;1.17;;
2119;SDS011;1066;52.540;13.420;2022-10-19T10:38:20;6.33;;;5.70;;
2119;SDS011;1066;52.540;13.420;2022-10-19T10:40:52;3.80;;;2.30;;
2119;SDS011;1066;52.540;13.420;2022-10-19T10:43:21;4.23;;;1.60;;
2119;SDS011;1066;52.540;13.420;2022-10-19T10:45:55;1.50;;;1.40;;
2119;SDS011;1066;52.540;13.420;2022-10-19T10:48:35;3.37;;;2.20;;
2119;SDS011;1066;52.540;13.420;2022-10-19T10:51:04;6.03;;;4.90;;
2119;SDS011;1066;52.540;13.420;2022-10-19T10:53:38;3.53;;;1.80;;
2119;SDS011;1066;52.540;13.420;2022-10-19T10:56:18;4.57;;;1.40;;
2119;SDS011;1066;52.540;13.420;2022-10-19T10:59:32;6.30;;;1.13;;
2119;SDS011;1066;52.540;13.420;2022-10-19T11:01:43;2.13;;;0.80;;
2119;SDS011;1066;52.540;13.420;2022-10-19T11:04:21;1.70;;;1.20;;
2119;SDS011;1066;52.540;13.420;2022-10-19T11:06:52;1.40;;;0.97;;
2119;SDS011;1066;52.540;13.420;2022-10-19T11:12:02;1.67;;;1.20;;
2119;SDS011;1066;52.540;13.420;2022-10-19T11:14:48;4.00;;;1.73;;
2119;SDS011;1066;52.540;13.420;2022-10-19T11:17:26;2.47;;;1.30;;
2119;SDS011;1066;52.540;13.420;2022-10-19T11:19:53;1.70;;;1.00;;
2119;SDS011;1066;52.540;13.420;2022-10-19T11:27:59;2.90;;;1.17;;
2119;SDS011;1066;52.540;13.420;2022-10-19T11:30:35;1.57;;;1.43;;
2119;SDS011;1066;52.540;13.420;2022-10-19T11:33:14;1.20;;;1.10;;
2119;SDS011;1066;52.540;13.420;2022-10-19T11:41:48;2.47;;;1.60;;
2119;SDS011;1066;52.540;13.420;2022-10-19T11:52:21;3.20;;;1.30;;
2119;SDS011;1066;52.540;13.420;2022-10-19T11:58:00;2.33;;;1.20;;
2119;SDS011;1066;52.540;13.420;2022-10-19T12:00:34;5.07;;;1.37;;
2119;SDS011;1066;52.540;13.420;2022-10-19T12:11:40;2.00;;;1.20;;
2119;SDS011;1066;52.540;13.420;2022-10-19T12:14:11;2.63;;;1.30;;
2119;SDS011;1066;52.540;13.420;2022-10-19T12:16:41;2.67;;;1.30;;
2119;SDS011;1066;52.540;13.420;2022-10-19T12:19:27;2.60;;;1.30;;
2119;SDS011;1066;52.540;13.420;2022-10-19T12:21:59;1.53;;;1.10;;
2119;SDS011;1066;52.540;13.420;2022-10-19T12:24:25;4.20;;;1.33;;
2119;SDS011;1066;52.540;13.420;2022-10-19T12:26:53;1.13;;;1.03;;
2119;SDS011;1066;52.540;13.420;2022-10-19T12:29:23;5.20;;;1.50;;
2119;SDS011;1066;52.540;13.420;2022-10-19T12:31:50;2.07;;;1.40;;
2119;SDS011;1066;52.540;13.420;2022-10-19T12:34:35;3.80;;;1.83;;
2119;SDS011;1066;52.540;13.420;2022-10-19T12:37:33;1.87;;;0.97;;
2119;SDS011;1066;52.540;13.420;2022-10-19T12:45:47;1.50;;;1.23;;
2119;SDS011;1066;52.540;13.420;2022-10-19T12:48:17;2.40;;;1.40;;
2119;SDS011;1066;52.540;13.420;2022-10-19T12:53:21;6.90;;;1.77;;
2119;SDS011;1066;52.540;13.420;2022-10-19T12:56:03;3.23;;;1.77;;
2119;SDS011;1066;52.540;13.420;2022-10-19T12:58:49;1.63;;;1.10;;
2119;SDS011;1066;52.540;13.420;2022-10-19T13:01:22;2.77;;;1.57;;
2119;SDS011;1066;52.540;13.420;2022-10-19T13:04:04;1.30;;;1.10;;
2119;SDS011;1066;52.540;13.420;2022-10-19T13:06:34;1.70;;;1.60;;
2119;SDS011;1066;52.540;13.420;2022-10-19T13:09:04;5.53;;;3.23;;
2119;SDS011;1066;52.540;13.420;2022-10-19T13:11:30;7.27;;;2.20;;
2119;SDS011;1066;52.540;13.420;2022-10-19T13:14:04;2.60;;;2.00;;
2119;SDS011;1066;52.540;13.420;2022-10-19T13:16:57;4.87;;;1.40;;
2119;SDS011;1066;52.540;13.420;2022-10-19T13:19:24;6.20;;;2.80;;
2119;SDS011;1066;52.540;13.420;2022-10-19T13:24:29;3.20;;;1.60;;
2119;SDS011;1066;52.540;13.420;2022-10-19T13:29:27;2.43;;;1.77;;
2119;SDS011;1066;52.540;13.420;2022-10-19T13:35:42;3.43;;;1.70;;
2119;SDS011;1066;52.540;13.420;2022-10-19T13:43:26;5.40;;;3.13;;
2119;SDS011;1066;52.540;13.420;2022-10-19T13:45:55;9.40;;;5.40;;
2119;SDS011;1066;52.540;13.420;2022-10-19T13:48:43;2.87;;;2.00;;
2119;SDS011;1066;52.540;13.420;2022-10-19T13:59:29;2.10;;;1.20;;
2119;SDS011;1066;52.540;13.420;2022-10-19T14:07:18;1.13;;;0.90;;
2119;SDS011;1066;52.540;13.420;2022-10-19T14:12:33;3.20;;;1.60;;
2119;SDS011;1066;52.540;13.420;2022-10-19T14:14:59;1.70;;;1.10;;
2119;SDS011;1066;52.540;13.420;2022-10-19T14:17:25;1.50;;;1.30;;
2119;SDS011;1066;52.540;13.420;2022-10-19T14:19:54;3.70;;;1.50;;
2119;SDS011;1066;52.540;13.420;2022-10-19T14:24:58;2.03;;;1.37;;
2119;SDS011;1066;52.540;13.420;2022-10-19T14:27:44;3.40;;;1.30;;
2119;SDS011;1066;52.540;13.420;2022-10-19T14:30:44;1.40;;;1.20;;
2119;SDS011;1066;52.540;13.420;2022-10-19T14:33:06;1.90;;;1.20;;
2119;SDS011;1066;52.540;13.420;2022-10-19T14:35:36;3.03;;;1.73;;
2119;SDS011;1066;52.540;13.420;2022-10-19T14:38:06;2.43;;;1.33;;
2119;SDS011;1066;52.540;13.420;2022-10-19T14:40:36;2.37;;;1.30;;
2119;SDS011;1066;52.540;13.420;2022-10-19T14:43:16;1.57;;;1.10;;
2119;SDS011;1066;52.540;13.420;2022-10-19T14:48:30;2.10;;;1.40;;
2119;SDS011;1066;52.540;13.420;2022-10-19T14:50:56;2.50;;;1.33;;
2119;SDS011;1066;52.540;13.420;2022-10-19T14:56:08;3.93;;;1.17;;
2119;SDS011;1066;52.540;13.420;2022-10-19T14:58:39;1.87;;;1.10;;
2119;SDS011;1066;52.540;13.420;2022-10-19T15:01:08;2.90;;;1.13;;
2119;SDS011;1066;52.540;13.420;2022-10-19T15:03:34;1.40;;;1.30;;
2119;SDS011;1066;52.540;13.420;2022-10-19T15:06:02;1.83;;;1.10;;
2119;SDS011;1066;52.540;13.420;2022-10-19T15:08:30;1.93;;;1.00;;
2119;SDS011;1066;52.540;13.420;2022-10-19T15:11:01;1.03;;;0.93;;
2119;SDS011;1066;52.540;13.420;2022-10-19T15:13:29;2.60;;;1.10;;
2119;SDS011;1066;52.540;13.420;2022-10-19T15:15:56;2.40;;;1.20;;
2119;SDS011;1066;52.540;13.420;2022-10-19T15:18:22;4.20;;;1.20;;
2119;SDS011;1066;52.540;13.420;2022-10-19T15:21:11;1.93;;;1.17;;
2119;SDS011;1066;52.540;13.420;2022-10-19T15:23:39;1.50;;;1.10;;
2119;SDS011;1066;52.540;13.420;2022-10-19T15:26:17;1.70;;;1.20;;
2119;SDS011;1066;52.540;13.420;2022-10-19T15:28:43;2.93;;;1.63;;
2119;SDS011;1066;52.540;13.420;2022-10-19T15:34:00;3.53;;;1.03;;
2119;SDS011;1066;52.540;13.420;2022-10-19T15:36:27;1.63;;;1.17;;
2119;SDS011;1066;52.540;13.420;2022-10-19T15:41:29;3.13;;;2.00;;
2119;SDS011;1066;52.540;13.420;2022-10-19T15:44:02;2.10;;;1.50;;
2119;SDS011;1066;52.540;13.420;2022-10-19T15:46:32;5.20;;;1.63;;
2119;SDS011;1066;52.540;13.420;2022-10-19T15:50:00;2.63;;;1.77;;
2119;SDS011;1066;52.540;13.420;2022-10-19T15:52:13;3.43;;;1.97;;
2119;SDS011;1066;52.540;13.420;2022-10-19T15:54:39;2.43;;;1.67;;
2119;SDS011;1066;52.540;13.420;2022-10-19T15:57:15;2.50;;;1.83;;
2119;SDS011;1066;52.540;13.420;2022-10-19T15:59:57;3.30;;;1.53;;
2119;SDS011;1066;52.540;13.420;2022-10-19T16:02:26;2.97;;;1.60;;
2119;SDS011;1066;52.540;13.420;2022-10-19T16:04:52;4.80;;;2.00;;
2119;SDS011;1066;52.540;13.420;2022-10-19T16:07:22;3.33;;;2.20;;
2119;SDS011;1066;52.540;13.420;2022-10-19T16:09:49;3.70;;;2.13;;
2119;SDS011;1066;52.540;13.420;2022-10-19T16:12:15;2.40;;;2.10;;
2119;SDS011;1066;52.540;13.420;2022-10-19T16:14:40;5.00;;;2.63;;
2119;SDS011;1066;52.540;13.420;2022-10-19T16:17:05;3.73;;;2.27;;
2119;SDS011;1066;52.540;13.420;2022-10-19T16:19:31;3.00;;;2.10;;
2119;SDS011;1066;52.540;13.420;2022-10-19T16:21:56;3.73;;;2.33;;
2119;SDS011;1066;52.540;13.420;2022-10-19T16:24:21;2.83;;;2.20;;
2119;SDS011;1066;52.540;13.420;2022-10-19T16:26:47;2.50;;;2.20;;
2119;SDS011;1066;52.540;13.420;2022-10-19T16:29:12;4.27;;;3.20;;
2119;SDS011;1066;52.540;13.420;2022-10-19T16:31:38;3.93;;;2.13;;
2119;SDS011;1066;52.540;13.420;2022-10-19T16:34:03;3.40;;;2.40;;
2119;SDS011;1066;52.540;13.420;2022-10-19T16:36:28;4.07;;;2.50;;
2119;SDS011;1066;52.540;13.420;2022-10-19T16:38:54;3.73;;;2.80;;
2119;SDS011;1066;52.540;13.420;2022-10-19T16:41:20;3.47;;;2.27;;
2119;SDS011;1066;52.540;13.420;2022-10-19T16:43:45;4.17;;;2.53;;
2119;SDS011;1066;52.540;13.420;2022-10-19T16:46:12;3.23;;;2.37;;
2119;SDS011;1066;52.540;13.420;2022-10-19T16:48:38;3.50;;;2.43;;
2119;SDS011;1066;52.540;13.420;2022-10-19T16:53:32;3.77;;;2.67;;
2119;SDS011;1066;52.540;13.420;2022-10-19T16:56:04;2.80;;;2.50;;
2119;SDS011;1066;52.540;13.420;2022-10-19T16:58:31;5.33;;;2.80;;
2119;SDS011;1066;52.540;13.420;2022-10-19T17:00:56;3.60;;;2.80;;
2119;SDS011;1066;52.540;13.420;2022-10-19T17:03:25;5.93;;;3.30;;
2119;SDS011;1066;52.540;13.420;2022-10-19T17:05:52;3.50;;;3.00;;
2119;SDS011;1066;52.540;13.420;2022-10-19T17:08:17;4.67;;;3.07;;
2119;SDS011;1066;52.540;13.420;2022-10-19T17:10:43;5.27;;;3.50;;
2119;SDS011;1066;52.540;13.420;2022-10-19T17:13:08;3.83;;;3.23;;
2119;SDS011;1066;52.540;13.420;2022-10-19T17:15:34;4.00;;;3.30;;
2119;SDS011;1066;52.540;13.420;2022-10-19T17:18:01;5.13;;;3.60;;
2119;SDS011;1066;52.540;13.420;2022-10-19T17:20:26;5.30;;;3.87;;
2119;SDS011;1066;52.540;13.420;2022-10-19T17:22:51;5.50;;;3.80;;
2119;SDS011;1066;52.540;13.420;2022-10-19T17:25:17;5.47;;;4.37;;